createdAt,value
2023-11-04T00:01:01.685Z,70.56
2023-11-04T00:03:37.800Z,70.58
2023-11-04T00:06:06.478Z,70.79
2023-11-04T00:08:33.487Z,70.83
2023-11-04T00:11:00.496Z,70.76
2023-11-04T00:13:27.474Z,70.88
2023-11-04T00:15:57.154Z,70.86
2023-11-04T00:18:24.276Z,70.81
2023-11-04T00:20:52.442Z,70.62
2023-11-04T00:23:19.752Z,70.65
2023-11-04T00:25:46.734Z,70.69
2023-11-04T00:28:13.802Z,70.62
2023-11-04T00:30:40.940Z,70.93
2023-11-04T00:33:10.625Z,70.95
2023-11-04T00:35:37.955Z,71.08
2023-11-04T00:38:04.977Z,70.92
2023-11-04T00:40:31.946Z,70.98
2023-11-04T00:42:59.137Z,71.07
2023-11-04T00:45:26.182Z,71.30
2023-11-04T00:47:53.257Z,71.27
2023-11-04T00:50:22.890Z,71.45
2023-11-04T00:52:49.928Z,71.41
2023-11-04T00:55:16.976Z,71.36
2023-11-04T00:57:44.067Z,71.24
2023-11-04T01:00:12.719Z,71.42
2023-11-04T01:02:40.192Z,71.54
2023-11-04T01:05:07.847Z,71.50
2023-11-04T01:07:37.540Z,71.46
2023-11-04T01:10:05.152Z,71.38
2023-11-04T01:12:32.181Z,71.25
2023-11-04T01:14:59.208Z,71.30
2023-11-04T01:17:26.252Z,71.17
2023-11-04T01:19:53.321Z,71.11
2023-11-04T01:22:20.309Z,70.99
2023-11-04T01:24:50.244Z,70.92
2023-11-04T01:27:17.369Z,70.98
2023-11-04T01:29:44.428Z,70.64
2023-11-04T01:32:11.441Z,70.45
2023-11-04T01:34:38.686Z,70.58
2023-11-04T01:37:05.831Z,70.53
2023-11-04T01:39:34.022Z,70.82
2023-11-04T01:42:07.705Z,70.74
2023-11-04T01:44:35.235Z,70.47
2023-11-04T01:47:02.676Z,70.45
2023-11-04T01:49:30.514Z,70.20
2023-11-04T01:51:58.520Z,70.42
2023-11-04T01:54:27.931Z,70.23
2023-11-04T01:56:55.285Z,70.33
2023-11-04T01:59:25.482Z,70.71
2023-11-04T02:01:52.835Z,70.71
2023-11-04T02:04:20.034Z,70.73
2023-11-04T02:06:47.182Z,70.87
2023-11-04T02:09:14.327Z,71.06
2023-11-04T02:11:41.541Z,71.07
2023-11-04T02:14:10.052Z,71.04
2023-11-04T02:16:39.656Z,71.18
2023-11-04T02:19:06.702Z,71.27
2023-11-04T02:21:36.432Z,71.18
2023-11-04T02:24:03.832Z,71.02
2023-11-04T02:26:31.020Z,71.23
2023-11-04T02:28:58.016Z,71.26
2023-11-04T02:31:25.014Z,71.33
2023-11-04T02:33:52.081Z,71.44
2023-11-04T02:36:19.287Z,71.43
2023-11-04T02:38:48.945Z,71.39
2023-11-04T02:41:15.980Z,71.58
2023-11-04T02:43:42.963Z,71.75
2023-11-04T02:46:09.915Z,71.88
2023-11-04T02:48:37.099Z,71.75
2023-11-04T02:51:04.949Z,71.77
2023-11-04T02:53:31.932Z,71.69
2023-11-04T02:56:01.484Z,71.77
2023-11-04T02:58:28.439Z,71.56
2023-11-04T03:00:55.966Z,71.65
2023-11-04T03:03:23.600Z,71.31
2023-11-04T03:05:50.647Z,71.41
2023-11-04T03:08:17.749Z,71.57
2023-11-04T03:10:44.785Z,71.25
2023-11-04T03:13:14.422Z,71.22
2023-11-04T03:15:41.485Z,71.28
2023-11-04T03:18:08.738Z,71.29
2023-11-04T03:20:35.795Z,71.35
2023-11-04T03:23:02.827Z,71.02
2023-11-04T03:25:29.813Z,71.35
2023-11-04T03:27:56.858Z,71.45
2023-11-04T03:30:26.511Z,71.45
2023-11-04T03:32:53.498Z,71.34
2023-11-04T03:35:20.524Z,71.65
2023-11-04T03:37:47.489Z,72.14
2023-11-04T03:40:14.636Z,71.95
2023-11-04T03:42:41.651Z,72.03
2023-11-04T03:45:09.314Z,72.01
2023-11-04T03:47:39.001Z,72.26
2023-11-04T03:50:07.164Z,72.22
2023-11-04T03:52:34.196Z,72.57
2023-11-04T03:55:01.232Z,72.48
2023-11-04T03:57:28.282Z,72.51
2023-11-04T03:59:55.816Z,72.61
2023-11-04T04:02:22.812Z,72.73
2023-11-04T04:04:54.797Z,72.71
2023-11-04T04:07:21.794Z,72.60
2023-11-04T04:09:48.796Z,72.92
2023-11-04T04:12:15.792Z,72.85
2023-11-04T04:14:42.828Z,72.69
2023-11-04T04:17:09.764Z,72.72
2023-11-04T04:19:38.193Z,72.77
2023-11-04T04:22:08.337Z,73.11
2023-11-04T04:24:35.394Z,73.03
2023-11-04T04:27:02.389Z,72.99
2023-11-04T04:29:29.346Z,72.79
2023-11-04T04:31:56.324Z,72.78
2023-11-04T04:34:23.275Z,72.83
2023-11-04T04:36:50.295Z,72.75
2023-11-04T04:39:19.917Z,72.60
2023-11-04T04:41:46.923Z,72.79
2023-11-04T04:44:13.913Z,73.05
2023-11-04T04:46:41.058Z,72.75
2023-11-04T04:49:08.189Z,72.40
2023-11-04T04:51:35.369Z,72.18
2023-11-04T04:54:02.499Z,72.04
2023-11-04T04:56:32.099Z,72.03
2023-11-04T04:58:59.104Z,71.88
2023-11-04T05:01:26.358Z,71.74
2023-11-04T05:03:53.408Z,71.71
2023-11-04T05:06:20.421Z,71.85
2023-11-04T05:08:47.398Z,71.98
2023-11-04T05:11:14.440Z,71.75
2023-11-04T05:13:44.239Z,71.78
2023-11-04T05:16:11.272Z,71.89
2023-11-04T05:18:38.351Z,72.14
2023-11-04T05:21:06.048Z,72.06
2023-11-04T05:23:33.324Z,72.23
2023-11-04T05:26:01.016Z,72.30
2023-11-04T05:28:28.131Z,72.07
2023-11-04T05:30:57.795Z,72.29
2023-11-04T05:33:25.001Z,72.56
2023-11-04T05:35:52.091Z,72.50
2023-11-04T05:38:19.167Z,72.77
2023-11-04T05:40:46.389Z,72.82
2023-11-04T05:43:13.410Z,72.88
2023-11-04T05:45:40.513Z,72.84
2023-11-04T05:48:10.293Z,73.44
2023-11-04T05:50:37.368Z,73.13
2023-11-04T05:53:04.344Z,72.76
2023-11-04T05:55:31.351Z,72.85
2023-11-04T05:57:58.389Z,72.65
2023-11-04T06:00:25.851Z,72.58
2023-11-04T06:02:52.931Z,72.38
2023-11-04T06:05:22.599Z,72.09
2023-11-04T06:07:49.604Z,72.14
2023-11-04T06:10:17.084Z,72.25
2023-11-04T06:12:44.212Z,71.93
2023-11-04T06:15:11.389Z,71.79
2023-11-04T06:17:38.454Z,71.59
2023-11-04T06:20:06.920Z,71.51
2023-11-04T06:22:36.521Z,71.33
2023-11-04T06:25:05.287Z,71.27
2023-11-04T06:27:33.652Z,71.28
2023-11-04T06:30:00.824Z,71.37
2023-11-04T06:32:27.865Z,71.14
2023-11-04T06:34:54.934Z,71.04
2023-11-04T06:37:22.057Z,71.23
2023-11-04T06:39:51.668Z,71.26
2023-11-04T06:42:18.733Z,71.25
2023-11-04T06:44:45.850Z,71.14
2023-11-04T06:47:12.913Z,71.34
2023-11-04T06:49:40.042Z,71.16
2023-11-04T06:52:07.070Z,71.10
2023-11-04T06:54:34.105Z,71.10
2023-11-04T06:57:04.265Z,71.21
2023-11-04T06:59:31.394Z,71.02
2023-11-04T07:01:58.343Z,71.30
2023-11-04T07:04:25.359Z,71.44
2023-11-04T07:06:53.636Z,70.65
2023-11-04T07:09:20.668Z,70.86
2023-11-04T07:11:47.675Z,70.88
2023-11-04T07:14:17.323Z,70.78
2023-11-04T07:16:44.611Z,70.76
2023-11-04T07:19:11.766Z,70.92
2023-11-04T07:21:39.255Z,70.98
2023-11-04T07:24:07.638Z,70.81
2023-11-04T07:26:34.605Z,70.64
2023-11-04T07:29:01.759Z,70.66
2023-11-04T07:31:31.387Z,70.18
2023-11-04T07:33:58.619Z,70.51
2023-11-04T07:36:26.365Z,70.33
2023-11-04T07:38:53.815Z,70.14
2023-11-04T07:41:20.835Z,70.07
2023-11-04T07:43:48.378Z,70.09
2023-11-04T07:46:15.647Z,70.05
2023-11-04T07:48:45.382Z,70.18
2023-11-04T07:51:12.546Z,70.25
2023-11-04T07:53:39.635Z,70.11
2023-11-04T07:56:07.516Z,70.12
2023-11-04T07:58:34.524Z,70.03
2023-11-04T08:01:01.736Z,70.13
2023-11-04T08:03:28.866Z,69.91
2023-11-04T08:05:58.591Z,69.64
2023-11-04T08:08:25.659Z,69.13
2023-11-04T08:10:52.899Z,68.99
2023-11-04T08:13:19.880Z,68.80
2023-11-04T08:15:47.043Z,68.86
2023-11-04T08:18:14.198Z,68.58
2023-11-04T08:20:41.236Z,68.53
2023-11-04T08:23:10.847Z,67.93
2023-11-04T08:25:37.886Z,67.15
2023-11-04T08:28:05.385Z,67.16
2023-11-04T08:30:32.503Z,67.50
2023-11-04T08:32:59.606Z,67.48
2023-11-04T08:35:26.690Z,67.02
2023-11-04T08:37:53.794Z,67.48
2023-11-04T08:40:23.456Z,67.67
2023-11-04T08:42:50.521Z,66.96
2023-11-04T08:45:17.611Z,67.00
2023-11-04T08:47:44.668Z,65.38
2023-11-04T08:50:12.164Z,66.24
2023-11-04T08:52:39.226Z,66.51
2023-11-04T08:55:07.568Z,65.52
2023-11-04T08:57:37.515Z,65.28
2023-11-04T09:00:05.774Z,65.85
2023-11-04T09:02:32.806Z,65.90
2023-11-04T09:05:05.571Z,65.95
2023-11-04T09:07:35.203Z,64.85
2023-11-04T09:10:02.488Z,65.31
2023-11-04T09:12:29.698Z,65.42
2023-11-04T09:14:59.576Z,64.58
2023-11-04T09:17:26.689Z,64.93
2023-11-04T09:19:53.716Z,65.24
2023-11-04T09:22:20.775Z,65.00
2023-11-04T09:24:47.780Z,64.79
2023-11-04T09:27:14.830Z,65.02
2023-11-04T09:29:41.856Z,64.75
2023-11-04T09:32:11.455Z,64.53
2023-11-04T09:34:38.755Z,63.42
2023-11-04T09:37:05.876Z,62.76
2023-11-04T09:39:32.882Z,63.26
2023-11-04T09:42:00.026Z,62.10
2023-11-04T09:44:27.231Z,61.82
2023-11-04T09:46:54.417Z,61.41
2023-11-04T09:49:24.109Z,61.63
2023-11-04T09:51:54.744Z,59.86
2023-11-04T09:54:23.371Z,58.56
2023-11-04T09:56:50.413Z,58.39
2023-11-04T09:59:17.559Z,58.67
2023-11-04T10:01:44.605Z,59.03
2023-11-04T10:04:11.835Z,58.31
2023-11-04T10:06:41.575Z,58.25
2023-11-04T10:09:08.804Z,58.27
2023-11-04T10:11:35.822Z,57.51
2023-11-04T10:14:02.882Z,57.00
2023-11-04T10:16:30.228Z,57.41
2023-11-04T10:18:57.627Z,56.64
2023-11-04T10:21:24.876Z,56.64
2023-11-04T10:23:54.992Z,56.55
2023-11-04T10:26:22.056Z,56.55
2023-11-04T10:28:49.434Z,56.93
2023-11-04T10:31:18.973Z,57.04
2023-11-04T10:33:49.306Z,57.30
2023-11-04T10:36:16.786Z,59.10
2023-11-04T10:38:48.373Z,59.56
2023-11-04T10:41:20.628Z,60.47
2023-11-04T10:43:52.941Z,61.68
2023-11-04T10:46:43.113Z,62.99
2023-11-04T10:49:20.711Z,63.11
2023-11-04T10:51:56.262Z,63.28
2023-11-04T10:54:31.921Z,63.48
2023-11-04T10:57:11.740Z,63.73
2023-11-04T10:59:52.098Z,63.42
2023-11-04T11:02:19.549Z,63.65
2023-11-04T11:04:49.464Z,63.39
2023-11-04T11:07:19.881Z,62.99
2023-11-04T11:09:48.691Z,61.10
2023-11-04T11:12:24.091Z,58.68
2023-11-04T11:14:52.748Z,56.31
2023-11-04T11:17:30.036Z,54.68
2023-11-04T11:19:57.224Z,54.30
2023-11-04T11:22:25.205Z,51.98
2023-11-04T11:24:52.997Z,51.36
2023-11-04T11:27:24.758Z,51.73
2023-11-04T11:29:52.450Z,51.31
2023-11-04T11:32:19.571Z,51.38
2023-11-04T11:34:50.071Z,51.66
2023-11-04T11:37:21.544Z,50.96
2023-11-04T11:39:48.826Z,50.65
2023-11-04T11:42:15.969Z,51.54
2023-11-04T11:44:45.878Z,51.46
2023-11-04T11:47:13.000Z,51.62
2023-11-04T11:49:39.992Z,53.27
2023-11-04T11:52:07.181Z,55.14
2023-11-04T11:54:34.421Z,57.71
2023-11-04T11:57:02.123Z,59.23
2023-11-04T11:59:29.188Z,60.21
2023-11-04T12:02:01.476Z,64.06
2023-11-04T12:04:30.236Z,61.63
2023-11-04T12:06:57.436Z,62.07
2023-11-04T12:09:24.424Z,64.27
2023-11-04T12:11:52.016Z,65.09
2023-11-04T12:14:19.233Z,64.46
2023-11-04T12:16:47.577Z,66.88
2023-11-04T12:19:18.234Z,69.01
2023-11-04T12:21:45.425Z,67.79
2023-11-04T12:24:12.704Z,69.24
2023-11-04T12:26:39.783Z,68.78
2023-11-04T12:29:06.858Z,69.36
2023-11-04T12:31:33.955Z,70.03
2023-11-04T12:34:03.464Z,69.47
2023-11-04T12:36:33.235Z,68.81
2023-11-04T12:39:00.363Z,68.89
2023-11-04T12:41:28.264Z,69.94
2023-11-04T12:43:55.464Z,70.75
2023-11-04T12:46:22.974Z,70.09
2023-11-04T12:48:50.285Z,70.97
2023-11-04T12:51:17.606Z,71.22
2023-11-04T12:53:47.224Z,70.38
2023-11-04T12:56:14.291Z,70.40
2023-11-04T12:58:41.398Z,70.67
2023-11-04T13:01:08.615Z,70.60
2023-11-04T13:03:35.778Z,71.98
2023-11-04T13:06:02.961Z,72.12
2023-11-04T13:08:30.060Z,72.27
2023-11-04T13:10:59.978Z,72.55
2023-11-04T13:13:27.181Z,72.35
2023-11-04T13:15:54.193Z,71.73
2023-11-04T13:18:21.303Z,70.61
2023-11-04T13:20:48.323Z,70.25
2023-11-04T13:23:17.892Z,70.86
2023-11-04T13:25:46.298Z,70.32
2023-11-04T13:28:15.980Z,69.23
2023-11-04T13:30:43.227Z,69.71
2023-11-04T13:33:10.416Z,68.71
2023-11-04T13:35:37.759Z,68.49
2023-11-04T13:38:04.923Z,68.54
2023-11-04T13:40:31.913Z,69.16
2023-11-04T13:42:59.108Z,69.64
2023-11-04T13:45:28.741Z,70.78
2023-11-04T13:47:55.797Z,72.32
2023-11-04T13:50:22.949Z,72.46
2023-11-04T13:52:50.027Z,70.42
2023-11-04T13:55:17.120Z,70.37
2023-11-04T13:57:44.252Z,68.67
2023-11-04T14:00:12.290Z,69.21
2023-11-04T14:02:42.045Z,70.08
2023-11-04T14:05:09.615Z,70.59
2023-11-04T14:07:36.866Z,70.38
2023-11-04T14:10:04.425Z,71.43
2023-11-04T14:12:31.606Z,72.50
2023-11-04T14:14:58.621Z,72.79
2023-11-04T14:17:26.044Z,71.85
2023-11-04T14:19:55.775Z,73.34
2023-11-04T14:22:22.792Z,73.02
2023-11-04T14:24:49.877Z,74.75
2023-11-04T14:27:16.999Z,75.34
2023-11-04T14:29:43.993Z,75.08
2023-11-04T14:32:11.113Z,74.98
2023-11-04T14:34:38.244Z,75.77
2023-11-04T14:37:08.130Z,76.24
2023-11-04T14:39:35.578Z,76.27
2023-11-04T14:42:02.592Z,76.64
2023-11-04T14:44:29.705Z,76.17
2023-11-04T14:46:56.861Z,76.41
2023-11-04T14:49:34.544Z,76.84
2023-11-04T14:52:01.783Z,77.36
2023-11-04T14:54:31.585Z,77.87
2023-11-04T14:57:00.540Z,77.79
2023-11-04T14:59:29.021Z,77.61
2023-11-04T15:01:56.072Z,78.01
2023-11-04T15:04:23.636Z,78.20
2023-11-04T15:06:50.860Z,77.78
2023-11-04T15:09:17.916Z,77.42
2023-11-04T15:11:47.561Z,77.44
2023-11-04T15:14:14.735Z,77.29
2023-11-04T15:16:41.990Z,77.71
2023-11-04T15:19:09.178Z,77.47
2023-11-04T15:21:36.532Z,78.40
2023-11-04T15:24:03.994Z,79.04
2023-11-04T15:26:31.007Z,78.48
2023-11-04T15:29:00.701Z,78.96
2023-11-04T15:31:27.825Z,78.57
2023-11-04T15:33:54.912Z,78.54
2023-11-04T15:36:21.996Z,78.46
2023-11-04T15:38:49.105Z,78.62
2023-11-04T15:41:16.147Z,78.99
2023-11-04T15:43:43.180Z,79.00
2023-11-04T15:46:12.816Z,78.79
2023-11-04T15:48:40.047Z,78.47
2023-11-04T15:51:07.614Z,77.42
2023-11-04T15:53:34.910Z,78.13
2023-11-04T15:56:03.349Z,77.51
2023-11-04T15:58:31.488Z,79.00
2023-11-04T16:00:58.906Z,78.42
2023-11-04T16:03:28.635Z,78.11
2023-11-04T16:05:55.899Z,77.11
2023-11-04T16:08:23.294Z,76.93
2023-11-04T16:10:50.281Z,76.79
2023-11-04T16:13:17.427Z,76.12
2023-11-04T16:15:44.593Z,76.01
2023-11-04T16:18:11.728Z,76.07
2023-11-04T16:20:41.651Z,76.07
2023-11-04T16:23:08.765Z,76.03
2023-11-04T16:25:35.969Z,75.45
2023-11-04T16:28:02.991Z,75.65
2023-11-04T16:30:30.048Z,76.19
2023-11-04T16:32:57.601Z,76.09
2023-11-04T16:35:24.779Z,75.67
2023-11-04T16:37:54.367Z,75.90
2023-11-04T16:40:21.652Z,75.96
2023-11-04T16:42:48.708Z,76.24
2023-11-04T16:45:17.049Z,75.91
2023-11-04T16:47:44.879Z,76.34
2023-11-04T16:50:12.287Z,75.64
2023-11-04T16:52:39.330Z,76.48
2023-11-04T16:55:09.598Z,76.15
2023-11-04T16:57:36.775Z,75.66
2023-11-04T17:00:04.809Z,75.28
2023-11-04T17:02:31.803Z,74.23
2023-11-04T17:04:59.108Z,74.18
2023-11-04T17:07:26.293Z,73.82
2023-11-04T17:09:53.376Z,72.76
2023-11-04T17:12:23.045Z,72.53
2023-11-04T17:14:50.606Z,71.39
2023-11-04T17:17:17.748Z,71.33
2023-11-04T17:19:44.781Z,70.97
2023-11-04T17:22:12.056Z,70.35
2023-11-04T17:24:39.465Z,70.28
2023-11-04T17:27:06.488Z,70.29
2023-11-04T17:29:36.303Z,70.15
2023-11-04T17:32:03.383Z,70.22
2023-11-04T17:34:30.572Z,70.68
2023-11-04T17:36:57.719Z,70.30
2023-11-04T17:39:24.950Z,70.20
2023-11-04T17:41:51.996Z,70.17
2023-11-04T17:44:18.996Z,70.10
2023-11-04T17:46:48.586Z,70.11
2023-11-04T17:49:15.535Z,70.01
2023-11-04T17:51:42.588Z,70.03
2023-11-04T17:54:09.731Z,69.83
2023-11-04T17:56:36.843Z,69.92
2023-11-04T17:59:04.135Z,69.76
2023-11-04T18:01:31.260Z,69.89
2023-11-04T18:04:01.062Z,69.35
2023-11-04T18:06:28.209Z,69.07
2023-11-04T18:08:55.229Z,68.60
2023-11-04T18:11:22.284Z,68.60
2023-11-04T18:13:49.320Z,68.89
2023-11-04T18:16:16.449Z,68.52
2023-11-04T18:18:43.605Z,68.21
2023-11-04T18:21:13.371Z,68.19
2023-11-04T18:23:40.464Z,68.38
2023-11-04T18:26:07.557Z,67.99
2023-11-04T18:28:34.596Z,67.25
2023-11-04T18:31:01.756Z,67.49
2023-11-04T18:33:28.871Z,67.55
2023-11-04T18:35:56.017Z,66.87
2023-11-04T18:38:26.008Z,66.85
2023-11-04T18:40:53.002Z,66.77
2023-11-04T18:43:20.158Z,66.83
2023-11-04T18:45:47.375Z,66.53
2023-11-04T18:48:14.639Z,66.16
2023-11-04T18:50:41.932Z,66.08
2023-11-04T18:53:08.984Z,66.37
2023-11-04T18:55:38.633Z,66.17
2023-11-04T18:58:05.818Z,66.20
2023-11-04T19:00:32.933Z,65.45
2023-11-04T19:03:01.158Z,65.28
2023-11-04T19:05:28.458Z,64.83
2023-11-04T19:07:57.980Z,64.71
2023-11-04T19:10:27.419Z,64.94
2023-11-04T19:12:57.207Z,64.98
2023-11-04T19:15:24.221Z,65.38
2023-11-04T19:17:51.532Z,65.63
2023-11-04T19:20:21.446Z,65.67
2023-11-04T19:22:48.488Z,65.78
2023-11-04T19:25:17.725Z,65.74
2023-11-04T19:27:44.837Z,65.67
2023-11-04T19:30:14.963Z,66.18
2023-11-04T19:32:42.028Z,66.16
2023-11-04T19:35:10.038Z,66.23
2023-11-04T19:37:37.133Z,65.70
2023-11-04T19:40:05.085Z,65.20
2023-11-04T19:42:32.908Z,64.67
2023-11-04T19:44:59.982Z,64.39
2023-11-04T19:47:34.084Z,64.53
2023-11-04T19:50:01.326Z,64.96
2023-11-04T19:52:28.400Z,65.27
2023-11-04T19:54:55.575Z,65.53
2023-11-04T19:57:22.769Z,66.26
2023-11-04T19:59:49.868Z,67.14
2023-11-04T20:02:19.541Z,67.60
2023-11-04T20:04:49.351Z,67.40
2023-11-04T20:07:16.694Z,67.63
2023-11-04T20:09:45.205Z,68.94
2023-11-04T20:12:14.280Z,69.33
2023-11-04T20:14:41.344Z,69.99
2023-11-04T20:17:08.952Z,71.11
2023-11-04T20:19:36.080Z,71.97
2023-11-04T20:22:05.776Z,73.38
2023-11-04T20:24:32.905Z,73.71
2023-11-04T20:27:00.115Z,75.18
2023-11-04T20:29:27.166Z,75.70
2023-11-04T20:31:54.210Z,76.81
2023-11-04T20:34:21.324Z,78.41
2023-11-04T20:36:48.450Z,79.22
2023-11-04T20:39:18.241Z,79.84
2023-11-04T20:41:45.301Z,82.13
2023-11-04T20:44:12.449Z,85.38
2023-11-04T20:46:39.607Z,87.25
2023-11-04T20:49:06.744Z,87.60
2023-11-04T20:51:33.777Z,88.07
2023-11-04T20:54:00.848Z,88.95
2023-11-04T20:56:30.564Z,89.99
2023-11-04T20:58:57.598Z,89.97
2023-11-04T21:01:24.706Z,90.96
2023-11-04T21:03:51.943Z,90.93
2023-11-04T21:06:19.027Z,91.19
2023-11-04T21:08:46.674Z,91.76
2023-11-04T21:11:13.799Z,92.10
2023-11-04T21:13:43.455Z,92.79
2023-11-04T21:16:10.976Z,93.57
2023-11-04T21:18:38.321Z,93.44
2023-11-04T21:21:06.973Z,93.81
2023-11-04T21:23:34.079Z,94.12
2023-11-04T21:26:01.725Z,94.32
2023-11-04T21:28:29.550Z,94.09
2023-11-04T21:30:59.447Z,94.24
2023-11-04T21:33:32.431Z,93.72
2023-11-04T21:35:59.916Z,93.20
2023-11-04T21:38:27.097Z,92.87
2023-11-04T21:40:54.124Z,92.37
2023-11-04T21:43:21.316Z,92.40
2023-11-04T21:45:48.339Z,92.80
2023-11-04T21:48:18.032Z,92.67
2023-11-04T21:50:45.055Z,92.84
2023-11-04T21:53:12.092Z,92.11
2023-11-04T21:55:39.133Z,91.96
2023-11-04T21:58:06.181Z,91.05
2023-11-04T22:00:33.229Z,91.32
2023-11-04T22:03:00.318Z,90.89
2023-11-04T22:05:29.986Z,89.51
2023-11-04T22:07:57.023Z,88.20
2023-11-04T22:10:24.121Z,87.08
2023-11-04T22:12:51.231Z,87.42
2023-11-04T22:15:18.483Z,86.45
2023-11-04T22:17:45.917Z,86.45
2023-11-04T22:20:13.175Z,86.29
2023-11-04T22:22:42.800Z,85.73
2023-11-04T22:25:10.097Z,85.35
2023-11-04T22:27:37.166Z,85.29
2023-11-04T22:30:05.260Z,85.75
2023-11-04T22:32:32.318Z,85.34
2023-11-04T22:34:59.343Z,85.88
2023-11-04T22:37:26.435Z,84.51
2023-11-04T22:39:56.134Z,83.07
2023-11-04T22:42:23.155Z,82.96
2023-11-04T22:44:50.144Z,83.85
2023-11-04T22:47:17.164Z,83.83
2023-11-04T22:49:44.272Z,82.79
2023-11-04T22:52:11.389Z,82.60
2023-11-04T22:54:38.541Z,82.20
2023-11-04T22:57:08.268Z,82.12
2023-11-04T22:59:35.303Z,81.75
2023-11-04T23:02:02.331Z,81.04
2023-11-04T23:04:29.575Z,81.34
2023-11-04T23:06:56.628Z,80.89
2023-11-04T23:09:23.759Z,80.66
2023-11-04T23:11:50.973Z,80.54
2023-11-04T23:14:20.596Z,80.29
2023-11-04T23:16:47.622Z,79.94
2023-11-04T23:19:14.666Z,79.28
2023-11-04T23:21:41.856Z,78.47
2023-11-04T23:24:09.414Z,78.94
2023-11-04T23:26:36.466Z,77.83
2023-11-04T23:29:03.620Z,77.39
2023-11-04T23:31:33.274Z,76.24
2023-11-04T23:34:00.369Z,75.87
2023-11-04T23:36:27.422Z,75.68
2023-11-04T23:38:54.437Z,75.21
2023-11-04T23:41:23.757Z,73.97
2023-11-04T23:43:50.754Z,73.65
2023-11-04T23:46:17.881Z,73.17
2023-11-04T23:48:47.515Z,73.72
2023-11-04T23:51:14.565Z,73.05
2023-11-04T23:53:41.628Z,73.14
2023-11-04T23:56:09.559Z,73.13
2023-11-04T23:58:36.649Z,72.28
